sensor_id;sensor_type;location;lat;lon;timestamp;temperature;humidity
1129;DHT22;553;51.038;7.216;2023-04-01T00:01:09;10.20;99.90
1129;DHT22;553;51.038;7.216;2023-04-01T00:03:36;10.10;99.90
1129;DHT22;553;51.038;7.216;2023-04-01T00:06:03;10.20;99.90
1129;DHT22;553;51.038;7.216;2023-04-01T00:08:30;10.20;99.90
1129;DHT22;553;51.038;7.216;2023-04-01T00:10:58;10.10;99.90
1129;DHT22;553;51.038;7.216;2023-04-01T00:13:25;10.10;99.90
1129;DHT22;553;51.038;7.216;2023-04-01T00:15:53;10.10;99.90
1129;DHT22;553;51.038;7.216;2023-04-01T00:18:22;10.10;99.90
1129;DHT22;553;51.038;7.216;2023-04-01T00:20:50;10.20;99.90
1129;DHT22;553;51.038;7.216;2023-04-01T00:23:18;10.20;99.90
1129;DHT22;553;51.038;7.216;2023-04-01T00:25:45;10.20;99.90
1129;DHT22;553;51.038;7.216;2023-04-01T00:28:15;10.20;99.90
1129;DHT22;553;51.038;7.216;2023-04-01T00:30:42;10.20;99.90
1129;DHT22;553;51.038;7.216;2023-04-01T00:33:09;10.10;99.90
1129;DHT22;553;51.038;7.216;2023-04-01T00:35:36;10.10;99.90
1129;DHT22;553;51.038;7.216;2023-04-01T00:38:04;10.20;99.90
1129;DHT22;553;51.038;7.216;2023-04-01T00:40:34;10.20;99.90
1129;DHT22;553;51.038;7.216;2023-04-01T00:43:01;10.10;99.90
1129;DHT22;553;51.038;7.216;2023-04-01T00:45:36;10.10;99.90
1129;DHT22;553;51.038;7.216;2023-04-01T00:48:09;10.20;99.90
1129;DHT22;553;51.038;7.216;2023-04-01T00:50:39;10.30;99.90
1129;DHT22;553;51.038;7.216;2023-04-01T00:53:07;10.30;99.90
1129;DHT22;553;51.038;7.216;2023-04-01T00:55:39;10.30;99.90
1129;DHT22;553;51.038;7.216;2023-04-01T00:58:13;10.30;99.90
1129;DHT22;553;51.038;7.216;2023-04-01T01:00:42;10.20;99.90
1129;DHT22;553;51.038;7.216;2023-04-01T01:03:09;10.20;99.90
1129;DHT22;553;51.038;7.216;2023-04-01T01:09:10;10.30;99.90
1129;DHT22;553;51.038;7.216;2023-04-01T01:11:50;10.20;99.90
1129;DHT22;553;51.038;7.216;2023-04-01T01:17:26;10.20;99.90
1129;DHT22;553;51.038;7.216;2023-04-01T01:31:50;10.10;99.90
1129;DHT22;553;51.038;7.216;2023-04-01T01:34:51;10.10;99.90
1129;DHT22;553;51.038;7.216;2023-04-01T01:37:23;10.10;99.90
1129;DHT22;553;51.038;7.216;2023-04-01T01:39:58;10.10;99.90
1129;DHT22;553;51.038;7.216;2023-04-01T01:42:29;10.10;99.90
1129;DHT22;553;51.038;7.216;2023-04-01T01:44:59;10.10;99.90
1129;DHT22;553;51.038;7.216;2023-04-01T01:47:27;10.10;99.90
1129;DHT22;553;51.038;7.216;2023-04-01T01:49:56;10.20;99.90
1129;DHT22;553;51.038;7.216;2023-04-01T01:52:24;10.20;99.90
1129;DHT22;553;51.038;7.216;2023-04-01T01:54:53;10.20;99.90
1129;DHT22;553;51.038;7.216;2023-04-01T01:57:34;10.30;99.90
1129;DHT22;553;51.038;7.216;2023-04-01T02:00:08;10.20;99.90
1129;DHT22;553;51.038;7.216;2023-04-01T02:02:45;10.20;99.90
1129;DHT22;553;51.038;7.216;2023-04-01T02:05:17;10.10;99.90
1129;DHT22;553;51.038;7.216;2023-04-01T02:07:49;10.10;99.90
1129;DHT22;553;51.038;7.216;2023-04-01T02:10:22;10.10;99.90
1129;DHT22;553;51.038;7.216;2023-04-01T02:12:52;10.10;99.90
1129;DHT22;553;51.038;7.216;2023-04-01T02:15:21;10.10;99.90
1129;DHT22;553;51.038;7.216;2023-04-01T02:17:49;10.10;99.90
1129;DHT22;553;51.038;7.216;2023-04-01T02:20:21;10.10;99.90
1129;DHT22;553;51.038;7.216;2023-04-01T02:22:54;10.20;99.90
1129;DHT22;553;51.038;7.216;2023-04-01T02:25:27;10.10;99.90
1129;DHT22;553;51.038;7.216;2023-04-01T02:27:56;10.10;99.90
1129;DHT22;553;51.038;7.216;2023-04-01T02:30:29;10.00;99.90
1129;DHT22;553;51.038;7.216;2023-04-01T02:32:57;9.90;99.90
1129;DHT22;553;51.038;7.216;2023-04-01T02:35:25;10.00;99.90
1129;DHT22;553;51.038;7.216;2023-04-01T02:37:55;9.90;99.90
1129;DHT22;553;51.038;7.216;2023-04-01T02:40:22;9.90;99.90
1129;DHT22;553;51.038;7.216;2023-04-01T02:42:49;9.90;99.90
1129;DHT22;553;51.038;7.216;2023-04-01T02:45:16;9.90;99.90
1129;DHT22;553;51.038;7.216;2023-04-01T02:47:43;9.80;99.90
1129;DHT22;553;51.038;7.216;2023-04-01T02:50:10;9.80;99.90
1129;DHT22;553;51.038;7.216;2023-04-01T02:52:37;9.80;99.90
1129;DHT22;553;51.038;7.216;2023-04-01T02:55:05;9.90;99.90
1129;DHT22;553;51.038;7.216;2023-04-01T02:57:32;9.80;99.90
1129;DHT22;553;51.038;7.216;2023-04-01T02:59:59;9.80;99.90
1129;DHT22;553;51.038;7.216;2023-04-01T03:02:25;9.70;99.90
1129;DHT22;553;51.038;7.216;2023-04-01T03:04:53;9.70;99.90
1129;DHT22;553;51.038;7.216;2023-04-01T03:07:20;9.70;99.90
1129;DHT22;553;51.038;7.216;2023-04-01T03:09:48;9.60;99.90
1129;DHT22;553;51.038;7.216;2023-04-01T03:12:14;9.60;99.90
1129;DHT22;553;51.038;7.216;2023-04-01T03:14:48;9.60;99.90
1129;DHT22;553;51.038;7.216;2023-04-01T03:17:16;9.60;99.90
1129;DHT22;553;51.038;7.216;2023-04-01T03:19:43;9.60;99.90
1129;DHT22;553;51.038;7.216;2023-04-01T03:22:11;9.60;99.90
1129;DHT22;553;51.038;7.216;2023-04-01T03:24:37;9.50;99.90
1129;DHT22;553;51.038;7.216;2023-04-01T03:27:04;9.60;99.90
1129;DHT22;553;51.038;7.216;2023-04-01T03:29:31;9.50;99.90
1129;DHT22;553;51.038;7.216;2023-04-01T03:31:58;9.60;99.90
1129;DHT22;553;51.038;7.216;2023-04-01T03:34:25;9.60;99.90
1129;DHT22;553;51.038;7.216;2023-04-01T03:36:52;9.50;99.90
1129;DHT22;553;51.038;7.216;2023-04-01T03:39:19;9.50;99.90
1129;DHT22;553;51.038;7.216;2023-04-01T03:41:46;9.60;99.90
1129;DHT22;553;51.038;7.216;2023-04-01T03:44:14;9.60;99.90
1129;DHT22;553;51.038;7.216;2023-04-01T03:46:41;9.60;99.90
1129;DHT22;553;51.038;7.216;2023-04-01T03:49:09;9.60;99.90
1129;DHT22;553;51.038;7.216;2023-04-01T03:51:39;9.60;99.90
1129;DHT22;553;51.038;7.216;2023-04-01T03:54:07;9.60;99.90
1129;DHT22;553;51.038;7.216;2023-04-01T03:56:34;9.60;99.90
1129;DHT22;553;51.038;7.216;2023-04-01T03:59:04;9.60;99.90
1129;DHT22;553;51.038;7.216;2023-04-01T04:01:31;9.60;99.90
1129;DHT22;553;51.038;7.216;2023-04-01T04:03:59;9.60;99.90
1129;DHT22;553;51.038;7.216;2023-04-01T04:06:27;9.60;99.90
1129;DHT22;553;51.038;7.216;2023-04-01T04:08:55;9.60;99.90
1129;DHT22;553;51.038;7.216;2023-04-01T04:11:22;9.60;99.90
1129;DHT22;553;51.038;7.216;2023-04-01T04:13:51;9.60;99.90
1129;DHT22;553;51.038;7.216;2023-04-01T04:16:19;9.60;99.90
1129;DHT22;553;51.038;7.216;2023-04-01T04:18:52;9.60;99.90
1129;DHT22;553;51.038;7.216;2023-04-01T04:21:19;9.60;99.90
1129;DHT22;553;51.038;7.216;2023-04-01T04:23:46;9.60;99.90
1129;DHT22;553;51.038;7.216;2023-04-01T04:26:15;9.70;99.90
1129;DHT22;553;51.038;7.216;2023-04-01T04:28:46;9.60;99.90
1129;DHT22;553;51.038;7.216;2023-04-01T04:31:19;9.60;99.90
1129;DHT22;553;51.038;7.216;2023-04-01T04:33:48;9.60;99.90
1129;DHT22;553;51.038;7.216;2023-04-01T04:36:15;9.60;99.90
1129;DHT22;553;51.038;7.216;2023-04-01T04:38:42;9.60;99.90
1129;DHT22;553;51.038;7.216;2023-04-01T04:41:13;9.60;99.90
1129;DHT22;553;51.038;7.216;2023-04-01T04:43:49;9.50;99.90
1129;DHT22;553;51.038;7.216;2023-04-01T04:46:18;9.50;99.90
1129;DHT22;553;51.038;7.216;2023-04-01T04:48:46;9.50;99.90
1129;DHT22;553;51.038;7.216;2023-04-01T04:51:16;9.60;99.90
1129;DHT22;553;51.038;7.216;2023-04-01T04:53:44;9.50;99.90
1129;DHT22;553;51.038;7.216;2023-04-01T04:56:11;9.60;99.90
1129;DHT22;553;51.038;7.216;2023-04-01T04:58:50;9.60;99.90
1129;DHT22;553;51.038;7.216;2023-04-01T05:01:21;9.50;99.90
1129;DHT22;553;51.038;7.216;2023-04-01T05:03:48;9.60;99.90
1129;DHT22;553;51.038;7.216;2023-04-01T05:06:16;9.60;99.90
1129;DHT22;553;51.038;7.216;2023-04-01T05:08:43;9.60;99.90
1129;DHT22;553;51.038;7.216;2023-04-01T05:11:13;9.60;99.90
1129;DHT22;553;51.038;7.216;2023-04-01T05:13:43;9.60;99.90
1129;DHT22;553;51.038;7.216;2023-04-01T05:16:11;9.60;99.90
1129;DHT22;553;51.038;7.216;2023-04-01T05:18:38;9.60;99.90
1129;DHT22;553;51.038;7.216;2023-04-01T05:21:07;9.70;99.90
1129;DHT22;553;51.038;7.216;2023-04-01T05:23:35;9.60;99.90
1129;DHT22;553;51.038;7.216;2023-04-01T05:26:06;9.60;99.90
1129;DHT22;553;51.038;7.216;2023-04-01T05:28:33;9.60;99.90
1129;DHT22;553;51.038;7.216;2023-04-01T05:31:00;9.60;99.90
1129;DHT22;553;51.038;7.216;2023-04-01T05:33:34;9.50;99.90
1129;DHT22;553;51.038;7.216;2023-04-01T05:36:09;9.60;99.90
1129;DHT22;553;51.038;7.216;2023-04-01T05:38:37;9.60;99.90
1129;DHT22;553;51.038;7.216;2023-04-01T05:41:07;9.60;99.90
1129;DHT22;553;51.038;7.216;2023-04-01T05:43:39;9.70;99.90
1129;DHT22;553;51.038;7.216;2023-04-01T05:46:26;9.60;99.90
1129;DHT22;553;51.038;7.216;2023-04-01T05:48:58;9.60;99.90
1129;DHT22;553;51.038;7.216;2023-04-01T05:51:26;9.60;99.90
1129;DHT22;553;51.038;7.216;2023-04-01T05:53:53;9.60;99.90
1129;DHT22;553;51.038;7.216;2023-04-01T05:56:19;9.60;99.90
1129;DHT22;553;51.038;7.216;2023-04-01T05:58:53;9.60;99.90
1129;DHT22;553;51.038;7.216;2023-04-01T06:01:22;9.60;99.90
1129;DHT22;553;51.038;7.216;2023-04-01T06:03:49;9.60;99.90
1129;DHT22;553;51.038;7.216;2023-04-01T06:06:25;9.70;99.90
1129;DHT22;553;51.038;7.216;2023-04-01T06:08:57;9.70;99.90
1129;DHT22;553;51.038;7.216;2023-04-01T06:14:11;9.60;99.90
1129;DHT22;553;51.038;7.216;2023-04-01T06:25:23;9.60;99.90
1129;DHT22;553;51.038;7.216;2023-04-01T06:28:00;9.60;99.90
1129;DHT22;553;51.038;7.216;2023-04-01T06:30:39;9.60;99.90
1129;DHT22;553;51.038;7.216;2023-04-01T06:36:19;9.50;99.90
1129;DHT22;553;51.038;7.216;2023-04-01T06:41:55;9.60;99.90
1129;DHT22;553;51.038;7.216;2023-04-01T06:44:46;9.60;99.90
1129;DHT22;553;51.038;7.216;2023-04-01T06:51:22;9.70;99.90
1129;DHT22;553;51.038;7.216;2023-04-01T07:00:31;9.70;99.90
1129;DHT22;553;51.038;7.216;2023-04-01T07:03:16;9.80;99.90
1129;DHT22;553;51.038;7.216;2023-04-01T07:05:45;9.80;99.90
1129;DHT22;553;51.038;7.216;2023-04-01T07:08:20;9.90;99.90
1129;DHT22;553;51.038;7.216;2023-04-01T07:10:56;9.80;99.90
1129;DHT22;553;51.038;7.216;2023-04-01T07:14:06;9.80;99.90
1129;DHT22;553;51.038;7.216;2023-04-01T07:16:51;9.80;99.90
1129;DHT22;553;51.038;7.216;2023-04-01T07:19:23;9.80;99.90
1129;DHT22;553;51.038;7.216;2023-04-01T07:22:14;9.70;99.90
1129;DHT22;553;51.038;7.216;2023-04-01T07:25:17;9.70;99.90
1129;DHT22;553;51.038;7.216;2023-04-01T07:27:55;9.80;99.90
1129;DHT22;553;51.038;7.216;2023-04-01T07:30:24;9.80;99.90
1129;DHT22;553;51.038;7.216;2023-04-01T07:33:15;9.80;99.90
1129;DHT22;553;51.038;7.216;2023-04-01T07:35:53;9.80;99.90
1129;DHT22;553;51.038;7.216;2023-04-01T07:52:24;9.90;99.90
1129;DHT22;553;51.038;7.216;2023-04-01T07:58:14;9.90;99.90
1129;DHT22;553;51.038;7.216;2023-04-01T08:06:43;9.90;99.90
1129;DHT22;553;51.038;7.216;2023-04-01T08:15:46;9.80;99.90
1129;DHT22;553;51.038;7.216;2023-04-01T08:19:09;9.70;99.90
1129;DHT22;553;51.038;7.216;2023-04-01T08:21:52;9.80;99.90
1129;DHT22;553;51.038;7.216;2023-04-01T08:24:44;9.70;99.90
1129;DHT22;553;51.038;7.216;2023-04-01T08:27:28;9.70;99.90
1129;DHT22;553;51.038;7.216;2023-04-01T08:30:06;9.70;99.90
1129;DHT22;553;51.038;7.216;2023-04-01T08:32:43;9.80;99.90
1129;DHT22;553;51.038;7.216;2023-04-01T08:35:29;9.80;99.90
1129;DHT22;553;51.038;7.216;2023-04-01T08:38:06;9.70;99.90
1129;DHT22;553;51.038;7.216;2023-04-01T08:43:33;9.70;99.90
1129;DHT22;553;51.038;7.216;2023-04-01T08:46:16;9.80;99.90
1129;DHT22;553;51.038;7.216;2023-04-01T08:48:58;9.80;99.90
1129;DHT22;553;51.038;7.216;2023-04-01T08:51:49;9.90;99.90
1129;DHT22;553;51.038;7.216;2023-04-01T08:54:36;9.80;99.90
1129;DHT22;553;51.038;7.216;2023-04-01T09:01:13;9.90;99.90
1129;DHT22;553;51.038;7.216;2023-04-01T09:03:37;9.80;99.90
1129;DHT22;553;51.038;7.216;2023-04-01T09:17:49;9.90;99.90
1129;DHT22;553;51.038;7.216;2023-04-01T09:25:48;9.90;99.90
1129;DHT22;553;51.038;7.216;2023-04-01T09:28:28;9.80;99.90
1129;DHT22;553;51.038;7.216;2023-04-01T09:43:05;9.70;99.90
1129;DHT22;553;51.038;7.216;2023-04-01T09:51:31;9.90;99.90
1129;DHT22;553;51.038;7.216;2023-04-01T10:00:07;10.10;99.90
1129;DHT22;553;51.038;7.216;2023-04-01T10:14:21;10.00;99.90
1129;DHT22;553;51.038;7.216;2023-04-01T10:17:17;10.10;99.90
1129;DHT22;553;51.038;7.216;2023-04-01T10:25:34;10.40;99.90
1129;DHT22;553;51.038;7.216;2023-04-01T10:31:27;10.20;99.90
1129;DHT22;553;51.038;7.216;2023-04-01T10:46:32;10.10;99.90
1129;DHT22;553;51.038;7.216;2023-04-01T11:09:01;10.10;99.90
1129;DHT22;553;51.038;7.216;2023-04-01T11:11:47;10.00;99.90
1129;DHT22;553;51.038;7.216;2023-04-01T11:26:19;10.10;99.90
1129;DHT22;553;51.038;7.216;2023-04-01T11:31:39;10.10;99.90
1129;DHT22;553;51.038;7.216;2023-04-01T11:36:49;10.10;99.90
1129;DHT22;553;51.038;7.216;2023-04-01T11:43:04;10.10;99.90
1129;DHT22;553;51.038;7.216;2023-04-01T11:46:11;10.10;99.90
1129;DHT22;553;51.038;7.216;2023-04-01T11:51:27;10.10;99.90
1129;DHT22;553;51.038;7.216;2023-04-01T12:00:02;10.10;99.90
1129;DHT22;553;51.038;7.216;2023-04-01T12:05:44;10.30;99.90
1129;DHT22;553;51.038;7.216;2023-04-01T12:08:47;10.30;99.90
1129;DHT22;553;51.038;7.216;2023-04-01T12:11:41;10.30;99.90
1129;DHT22;553;51.038;7.216;2023-04-01T12:14:21;10.40;99.90
1129;DHT22;553;51.038;7.216;2023-04-01T12:17:02;10.40;99.90
1129;DHT22;553;51.038;7.216;2023-04-01T12:19:51;10.50;99.90
1129;DHT22;553;51.038;7.216;2023-04-01T12:27:53;10.40;99.90
1129;DHT22;553;51.038;7.216;2023-04-01T12:33:48;10.40;99.90
1129;DHT22;553;51.038;7.216;2023-04-01T12:36:51;10.30;99.90
1129;DHT22;553;51.038;7.216;2023-04-01T12:42:07;10.40;99.90
1129;DHT22;553;51.038;7.216;2023-04-01T12:47:56;10.50;99.90
1129;DHT22;553;51.038;7.216;2023-04-01T12:56:42;12.40;99.90
1129;DHT22;553;51.038;7.216;2023-04-01T13:02:13;11.50;99.90
1129;DHT22;553;51.038;7.216;2023-04-01T13:05:01;11.20;99.90
1129;DHT22;553;51.038;7.216;2023-04-01T13:10:35;11.00;99.90
1129;DHT22;553;51.038;7.216;2023-04-01T13:13:15;10.90;99.90
1129;DHT22;553;51.038;7.216;2023-04-01T13:16:06;10.90;99.90
1129;DHT22;553;51.038;7.216;2023-04-01T13:18:57;10.80;99.90
1129;DHT22;553;51.038;7.216;2023-04-01T13:27:29;10.60;99.90
1129;DHT22;553;51.038;7.216;2023-04-01T13:30:23;10.70;99.90
1129;DHT22;553;51.038;7.216;2023-04-01T13:35:56;10.70;99.90
1129;DHT22;553;51.038;7.216;2023-04-01T13:49:34;10.70;99.90
1129;DHT22;553;51.038;7.216;2023-04-01T13:52:15;10.70;99.90
1129;DHT22;553;51.038;7.216;2023-04-01T14:05:59;10.70;99.90
1129;DHT22;553;51.038;7.216;2023-04-01T14:08:54;10.70;99.90
1129;DHT22;553;51.038;7.216;2023-04-01T14:17:51;10.60;99.90
1129;DHT22;553;51.038;7.216;2023-04-01T14:20:28;10.70;99.90
1129;DHT22;553;51.038;7.216;2023-04-01T14:40:15;10.80;99.90
1129;DHT22;553;51.038;7.216;2023-04-01T14:46:08;10.70;99.90
1129;DHT22;553;51.038;7.216;2023-04-01T14:51:33;10.70;99.90
1129;DHT22;553;51.038;7.216;2023-04-01T14:56:47;10.70;99.90
1129;DHT22;553;51.038;7.216;2023-04-01T14:59:27;10.60;99.90
1129;DHT22;553;51.038;7.216;2023-04-01T15:02:08;10.60;99.90
1129;DHT22;553;51.038;7.216;2023-04-01T15:13:21;10.50;99.90
1129;DHT22;553;51.038;7.216;2023-04-01T15:18:49;10.50;99.90
1129;DHT22;553;51.038;7.216;2023-04-01T15:21:29;10.50;99.90
1129;DHT22;553;51.038;7.216;2023-04-01T15:24:21;10.50;99.90
1129;DHT22;553;51.038;7.216;2023-04-01T15:30:12;10.30;99.90
1129;DHT22;553;51.038;7.216;2023-04-01T15:33:03;10.40;99.90
1129;DHT22;553;51.038;7.216;2023-04-01T15:35:42;10.40;99.90
1129;DHT22;553;51.038;7.216;2023-04-01T15:41:35;10.50;99.90
1129;DHT22;553;51.038;7.216;2023-04-01T15:44:42;10.40;99.90
1129;DHT22;553;51.038;7.216;2023-04-01T15:47:33;10.50;99.90
1129;DHT22;553;51.038;7.216;2023-04-01T15:50:34;10.40;99.90
1129;DHT22;553;51.038;7.216;2023-04-01T15:53:07;10.40;99.90
1129;DHT22;553;51.038;7.216;2023-04-01T15:55:54;10.40;99.90
1129;DHT22;553;51.038;7.216;2023-04-01T16:07:26;10.40;99.90
1129;DHT22;553;51.038;7.216;2023-04-01T16:13:17;10.40;99.90
1129;DHT22;553;51.038;7.216;2023-04-01T16:16:16;10.50;99.90
1129;DHT22;553;51.038;7.216;2023-04-01T16:19:12;10.50;99.90
1129;DHT22;553;51.038;7.216;2023-04-01T16:21:53;10.50;99.90
1129;DHT22;553;51.038;7.216;2023-04-01T16:27:23;10.40;99.90
1129;DHT22;553;51.038;7.216;2023-04-01T16:30:01;10.40;99.90
1129;DHT22;553;51.038;7.216;2023-04-01T16:32:44;10.40;99.90
1129;DHT22;553;51.038;7.216;2023-04-01T16:35:35;10.50;99.90
1129;DHT22;553;51.038;7.216;2023-04-01T16:41:03;10.50;99.90
1129;DHT22;553;51.038;7.216;2023-04-01T16:54:36;10.40;99.90
1129;DHT22;553;51.038;7.216;2023-04-01T17:02:15;10.40;99.90
1129;DHT22;553;51.038;7.216;2023-04-01T17:13:18;10.30;99.90
1129;DHT22;553;51.038;7.216;2023-04-01T17:25:16;10.30;99.90
1129;DHT22;553;51.038;7.216;2023-04-01T17:30:26;10.30;99.90
1129;DHT22;553;51.038;7.216;2023-04-01T17:33:18;10.30;99.90
1129;DHT22;553;51.038;7.216;2023-04-01T17:36:18;10.30;99.90
1129;DHT22;553;51.038;7.216;2023-04-01T17:41:53;10.20;99.90
1129;DHT22;553;51.038;7.216;2023-04-01T17:47:31;10.10;99.90
1129;DHT22;553;51.038;7.216;2023-04-01T17:53:06;10.20;99.90
1129;DHT22;553;51.038;7.216;2023-04-01T17:55:49;10.10;99.90
1129;DHT22;553;51.038;7.216;2023-04-01T17:58:28;10.00;99.90
1129;DHT22;553;51.038;7.216;2023-04-01T18:01:27;10.10;99.90
1129;DHT22;553;51.038;7.216;2023-04-01T18:18:10;10.00;99.90
1129;DHT22;553;51.038;7.216;2023-04-01T18:23:39;10.00;99.90
1129;DHT22;553;51.038;7.216;2023-04-01T18:26:27;9.90;99.90
1129;DHT22;553;51.038;7.216;2023-04-01T18:28:59;9.90;99.90
1129;DHT22;553;51.038;7.216;2023-04-01T18:31:42;9.90;99.90
1129;DHT22;553;51.038;7.216;2023-04-01T18:34:31;9.90;99.90
1129;DHT22;553;51.038;7.216;2023-04-01T18:39:57;10.00;99.90
1129;DHT22;553;51.038;7.216;2023-04-01T18:42:38;10.00;99.90
1129;DHT22;553;51.038;7.216;2023-04-01T18:45:22;10.00;99.90
1129;DHT22;553;51.038;7.216;2023-04-01T18:48:12;10.00;99.90
1129;DHT22;553;51.038;7.216;2023-04-01T18:50:48;9.90;99.90
1129;DHT22;553;51.038;7.216;2023-04-01T18:55:52;9.80;99.90
1129;DHT22;553;51.038;7.216;2023-04-01T18:58:34;9.80;99.90
1129;DHT22;553;51.038;7.216;2023-04-01T19:01:28;9.80;99.90
1129;DHT22;553;51.038;7.216;2023-04-01T19:07:01;9.80;99.90
1129;DHT22;553;51.038;7.216;2023-04-01T19:09:44;9.80;99.90
1129;DHT22;553;51.038;7.216;2023-04-01T19:26:29;9.70;99.90
1129;DHT22;553;51.038;7.216;2023-04-01T19:48:20;9.60;99.90
1129;DHT22;553;51.038;7.216;2023-04-01T19:50:59;9.60;99.90
1129;DHT22;553;51.038;7.216;2023-04-01T19:56:36;9.50;99.90
1129;DHT22;553;51.038;7.216;2023-04-01T19:59:15;9.60;99.90
1129;DHT22;553;51.038;7.216;2023-04-01T20:02:00;9.60;99.90
1129;DHT22;553;51.038;7.216;2023-04-01T20:14:49;9.60;99.90
1129;DHT22;553;51.038;7.216;2023-04-01T20:17:23;9.60;99.90
1129;DHT22;553;51.038;7.216;2023-04-01T20:20:00;9.70;99.90
1129;DHT22;553;51.038;7.216;2023-04-01T20:27:50;9.70;99.90
1129;DHT22;553;51.038;7.216;2023-04-01T20:41:28;9.70;99.90
1129;DHT22;553;51.038;7.216;2023-04-01T20:44:14;9.70;99.90
1129;DHT22;553;51.038;7.216;2023-04-01T20:46:54;9.70;99.90
1129;DHT22;553;51.038;7.216;2023-04-01T20:49:34;9.80;99.90
1129;DHT22;553;51.038;7.216;2023-04-01T20:57:23;9.70;99.90
1129;DHT22;553;51.038;7.216;2023-04-01T21:03:30;9.50;99.90
1129;DHT22;553;51.038;7.216;2023-04-01T21:09:46;9.50;99.90
1129;DHT22;553;51.038;7.216;2023-04-01T21:11:56;9.50;99.90
1129;DHT22;553;51.038;7.216;2023-04-01T21:15:07;9.60;99.90
1129;DHT22;553;51.038;7.216;2023-04-01T21:20:45;9.60;99.90
1129;DHT22;553;51.038;7.216;2023-04-01T21:31:53;9.50;99.90
1129;DHT22;553;51.038;7.216;2023-04-01T21:40:23;9.50;99.90
1129;DHT22;553;51.038;7.216;2023-04-01T21:43:17;9.60;99.90
1129;DHT22;553;51.038;7.216;2023-04-01T21:51:25;9.60;99.90
1129;DHT22;553;51.038;7.216;2023-04-01T21:59:54;9.70;99.90
1129;DHT22;553;51.038;7.216;2023-04-01T22:02:51;9.80;99.90
1129;DHT22;553;51.038;7.216;2023-04-01T22:05:30;9.70;99.90
1129;DHT22;553;51.038;7.216;2023-04-01T22:13:23;9.80;99.90
1129;DHT22;553;51.038;7.216;2023-04-01T22:16:17;9.80;99.90
1129;DHT22;553;51.038;7.216;2023-04-01T22:18:57;9.90;99.90
1129;DHT22;553;51.038;7.216;2023-04-01T22:24:06;9.90;99.90
1129;DHT22;553;51.038;7.216;2023-04-01T22:26:45;9.90;99.90
1129;DHT22;553;51.038;7.216;2023-04-01T22:29:31;9.90;99.90
1129;DHT22;553;51.038;7.216;2023-04-01T22:32:08;9.90;99.90
1129;DHT22;553;51.038;7.216;2023-04-01T22:43:15;9.80;99.90
1129;DHT22;553;51.038;7.216;2023-04-01T22:46:14;9.90;99.90
1129;DHT22;553;51.038;7.216;2023-04-01T22:48:48;10.00;99.90
1129;DHT22;553;51.038;7.216;2023-04-01T22:51:22;10.00;99.90
1129;DHT22;553;51.038;7.216;2023-04-01T22:56:32;9.90;99.90
1129;DHT22;553;51.038;7.216;2023-04-01T22:59:06;9.90;99.90
1129;DHT22;553;51.038;7.216;2023-04-01T23:01:43;10.00;99.90
1129;DHT22;553;51.038;7.216;2023-04-01T23:04:16;10.00;99.90
1129;DHT22;553;51.038;7.216;2023-04-01T23:06:51;10.00;99.90
1129;DHT22;553;51.038;7.216;2023-04-01T23:09:28;10.00;99.90
1129;DHT22;553;51.038;7.216;2023-04-01T23:12:03;10.00;99.90
1129;DHT22;553;51.038;7.216;2023-04-01T23:14:45;10.00;99.90
1129;DHT22;553;51.038;7.216;2023-04-01T23:17:35;10.10;99.90
1129;DHT22;553;51.038;7.216;2023-04-01T23:22:49;10.10;99.90
1129;DHT22;553;51.038;7.216;2023-04-01T23:25:30;10.00;99.90
1129;DHT22;553;51.038;7.216;2023-04-01T23:31:34;10.10;99.90
1129;DHT22;553;51.038;7.216;2023-04-01T23:34:03;10.10;99.90
1129;DHT22;553;51.038;7.216;2023-04-01T23:36:32;10.10;99.90
1129;DHT22;553;51.038;7.216;2023-04-01T23:39:18;10.10;99.90
1129;DHT22;553;51.038;7.216;2023-04-01T23:41:47;10.10;99.90
1129;DHT22;553;51.038;7.216;2023-04-01T23:44:15;10.10;99.90
1129;DHT22;553;51.038;7.216;2023-04-01T23:46:44;10.10;99.90
1129;DHT22;553;51.038;7.216;2023-04-01T23:49:16;10.00;99.90
1129;DHT22;553;51.038;7.216;2023-04-01T23:52:12;10.10;99.90
1129;DHT22;553;51.038;7.216;2023-04-01T23:55:02;10.10;99.90
1129;DHT22;553;51.038;7.216;2023-04-01T23:57:34;10.10;99.90
